sensor_id;sensor_type;location;lat;lon;timestamp;pressure;altitude;pressure_sealevel;temperature;humidity
46223;BME280;31943;51.410;7.564;2023-04-06T00:00:52;100523.66;;;3.08;56.24
46223;BME280;31943;51.410;7.564;2023-04-06T00:03:20;100523.34;;;3.02;56.16
46223;BME280;31943;51.410;7.564;2023-04-06T00:05:47;100518.94;;;2.99;56.23
46223;BME280;31943;51.410;7.564;2023-04-06T00:08:12;100512.78;;;2.95;56.24
46223;BME280;31943;51.410;7.564;2023-04-06T00:10:38;100516.09;;;2.93;56.34
46223;BME280;31943;51.410;7.564;2023-04-06T00:13:05;100516.91;;;2.92;56.13
46223;BME280;31943;51.410;7.564;2023-04-06T00:15:31;100515.94;;;2.90;56.45
46223;BME280;31943;51.410;7.564;2023-04-06T00:17:56;100516.78;;;2.89;56.63
46223;BME280;31943;51.410;7.564;2023-04-06T00:20:23;100514.22;;;2.89;56.62
46223;BME280;31943;51.410;7.564;2023-04-06T00:22:49;100509.84;;;2.88;56.76
46223;BME280;31943;51.410;7.564;2023-04-06T00:25:15;100502.94;;;2.87;57.10
46223;BME280;31943;51.410;7.564;2023-04-06T00:27:41;100506.31;;;2.86;56.75
46223;BME280;31943;51.410;7.564;2023-04-06T00:30:07;100502.72;;;2.82;56.80
46223;BME280;31943;51.410;7.564;2023-04-06T00:32:34;100502.59;;;2.79;56.87
46223;BME280;31943;51.410;7.564;2023-04-06T00:35:02;100495.66;;;2.78;56.84
46223;BME280;31943;51.410;7.564;2023-04-06T00:37:29;100497.38;;;2.77;56.93
46223;BME280;31943;51.410;7.564;2023-04-06T00:39:55;100493.75;;;2.74;56.90
46223;BME280;31943;51.410;7.564;2023-04-06T00:42:22;100496.22;;;2.71;56.88
46223;BME280;31943;51.410;7.564;2023-04-06T00:44:48;100487.38;;;2.66;57.08
46223;BME280;31943;51.410;7.564;2023-04-06T00:47:14;100488.25;;;2.66;57.17
46223;BME280;31943;51.410;7.564;2023-04-06T00:49:40;100488.13;;;2.63;57.13
46223;BME280;31943;51.410;7.564;2023-04-06T00:52:06;100482.13;;;2.63;57.22
46223;BME280;31943;51.410;7.564;2023-04-06T00:54:37;100480.31;;;2.62;57.21
46223;BME280;31943;51.410;7.564;2023-04-06T00:57:02;100475.94;;;2.59;57.19
46223;BME280;31943;51.410;7.564;2023-04-06T00:59:28;100471.50;;;2.56;57.30
46223;BME280;31943;51.410;7.564;2023-04-06T01:01:55;100475.69;;;2.54;57.23
46223;BME280;31943;51.410;7.564;2023-04-06T01:04:21;100464.44;;;2.52;57.41
46223;BME280;31943;51.410;7.564;2023-04-06T01:06:47;100472.16;;;2.52;57.57
46223;BME280;31943;51.410;7.564;2023-04-06T01:09:13;100465.19;;;2.50;57.58
46223;BME280;31943;51.410;7.564;2023-04-06T01:11:41;100459.97;;;2.48;57.53
46223;BME280;31943;51.410;7.564;2023-04-06T01:14:07;100460.84;;;2.49;57.66
46223;BME280;31943;51.410;7.564;2023-04-06T01:16:38;100457.28;;;2.45;57.54
46223;BME280;31943;51.410;7.564;2023-04-06T01:19:07;100462.25;;;2.42;57.60
46223;BME280;31943;51.410;7.564;2023-04-06T01:21:36;100456.97;;;2.39;57.54
46223;BME280;31943;51.410;7.564;2023-04-06T01:24:05;100447.41;;;2.36;57.84
46223;BME280;31943;51.410;7.564;2023-04-06T01:26:32;100448.16;;;2.34;57.81
46223;BME280;31943;51.410;7.564;2023-04-06T01:29:03;100449.84;;;2.33;57.72
46223;BME280;31943;51.410;7.564;2023-04-06T01:31:31;100444.63;;;2.32;57.72
46223;BME280;31943;51.410;7.564;2023-04-06T01:33:58;100435.19;;;2.32;57.62
46223;BME280;31943;51.410;7.564;2023-04-06T01:36:24;100437.69;;;2.31;57.87
46223;BME280;31943;51.410;7.564;2023-04-06T01:38:50;100429.91;;;2.29;57.90
46223;BME280;31943;51.410;7.564;2023-04-06T01:41:18;100432.44;;;2.28;57.84
46223;BME280;31943;51.410;7.564;2023-04-06T01:43:46;100433.16;;;2.25;57.77
46223;BME280;31943;51.410;7.564;2023-04-06T01:46:12;100431.31;;;2.23;58.08
46223;BME280;31943;51.410;7.564;2023-04-06T01:48:39;100432.06;;;2.20;57.90
46223;BME280;31943;51.410;7.564;2023-04-06T01:51:06;100427.63;;;2.17;57.95
46223;BME280;31943;51.410;7.564;2023-04-06T01:53:33;100429.34;;;2.17;58.00
46223;BME280;31943;51.410;7.564;2023-04-06T01:55:58;100433.53;;;2.15;57.98
46223;BME280;31943;51.410;7.564;2023-04-06T01:58:25;100427.44;;;2.13;58.15
46223;BME280;31943;51.410;7.564;2023-04-06T02:00:51;100429.94;;;2.11;58.05
46223;BME280;31943;51.410;7.564;2023-04-06T02:03:17;100429.06;;;2.11;58.16
46223;BME280;31943;51.410;7.564;2023-04-06T02:05:43;100429.81;;;2.08;58.16
46223;BME280;31943;51.410;7.564;2023-04-06T02:08:09;100429.81;;;2.08;58.04
46223;BME280;31943;51.410;7.564;2023-04-06T02:10:36;100425.53;;;2.09;58.01
46223;BME280;31943;51.410;7.564;2023-04-06T02:13:05;100419.50;;;2.08;58.07
46223;BME280;31943;51.410;7.564;2023-04-06T02:15:32;100422.88;;;2.07;58.20
46223;BME280;31943;51.410;7.564;2023-04-06T02:17:58;100420.22;;;2.06;58.12
46223;BME280;31943;51.410;7.564;2023-04-06T02:20:24;100422.75;;;2.04;58.15
46223;BME280;31943;51.410;7.564;2023-04-06T02:22:50;100422.59;;;2.01;58.34
46223;BME280;31943;51.410;7.564;2023-04-06T02:25:16;100420.78;;;1.98;58.19
46223;BME280;31943;51.410;7.564;2023-04-06T02:27:44;100422.47;;;1.98;58.14
46223;BME280;31943;51.410;7.564;2023-04-06T02:30:11;100419.81;;;1.96;58.12
46223;BME280;31943;51.410;7.564;2023-04-06T02:32:41;100422.31;;;1.95;58.36
46223;BME280;31943;51.410;7.564;2023-04-06T02:35:07;100425.69;;;1.94;58.41
46223;BME280;31943;51.410;7.564;2023-04-06T02:37:35;100413.72;;;1.94;58.54
46223;BME280;31943;51.410;7.564;2023-04-06T02:40:01;100420.47;;;1.92;58.30
46223;BME280;31943;51.410;7.564;2023-04-06T02:42:26;100419.53;;;1.90;58.46
46223;BME280;31943;51.410;7.564;2023-04-06T02:44:53;100415.19;;;1.89;58.42
46223;BME280;31943;51.410;7.564;2023-04-06T02:47:19;100416.88;;;1.89;58.50
46223;BME280;31943;51.410;7.564;2023-04-06T02:49:49;100415.06;;;1.86;58.51
46223;BME280;31943;51.410;7.564;2023-04-06T02:52:16;100416.59;;;1.83;58.49
46223;BME280;31943;51.410;7.564;2023-04-06T02:54:42;100417.38;;;1.82;58.54
46223;BME280;31943;51.410;7.564;2023-04-06T02:57:10;100416.34;;;1.78;58.57
46223;BME280;31943;51.410;7.564;2023-04-06T02:59:35;100409.47;;;1.77;58.67
46223;BME280;31943;51.410;7.564;2023-04-06T03:02:01;100411.06;;;1.75;58.60
46223;BME280;31943;51.410;7.564;2023-04-06T03:04:27;100416.22;;;1.75;58.56
46223;BME280;31943;51.410;7.564;2023-04-06T03:06:55;100407.53;;;1.73;58.50
46223;BME280;31943;51.410;7.564;2023-04-06T03:09:21;100404.97;;;1.73;58.62
46223;BME280;31943;51.410;7.564;2023-04-06T03:11:46;100405.78;;;1.72;58.62
46223;BME280;31943;51.410;7.564;2023-04-06T03:14:12;100408.50;;;1.75;58.76
46223;BME280;31943;51.410;7.564;2023-04-06T03:16:39;100402.44;;;1.74;58.66
46223;BME280;31943;51.410;7.564;2023-04-06T03:19:06;100404.97;;;1.73;58.64
46223;BME280;31943;51.410;7.564;2023-04-06T03:21:32;100408.41;;;1.73;58.39
46223;BME280;31943;51.410;7.564;2023-04-06T03:24:05;100407.47;;;1.71;58.41
46223;BME280;31943;51.410;7.564;2023-04-06T03:26:32;100405.69;;;1.70;58.57
46223;BME280;31943;51.410;7.564;2023-04-06T03:29:00;100408.25;;;1.70;58.58
46223;BME280;31943;51.410;7.564;2023-04-06T03:31:31;100405.56;;;1.67;58.41
46223;BME280;31943;51.410;7.564;2023-04-06T03:33:57;100410.63;;;1.66;58.69
46223;BME280;31943;51.410;7.564;2023-04-06T03:36:23;100409.66;;;1.64;58.62
46223;BME280;31943;51.410;7.564;2023-04-06T03:38:49;100409.66;;;1.64;58.49
46223;BME280;31943;51.410;7.564;2023-04-06T03:41:18;100404.44;;;1.62;58.89
46223;BME280;31943;51.410;7.564;2023-04-06T03:43:45;100397.47;;;1.60;58.77
46223;BME280;31943;51.410;7.564;2023-04-06T03:46:11;100405.09;;;1.58;58.70
46223;BME280;31943;51.410;7.564;2023-04-06T03:48:37;100401.56;;;1.56;58.72
46223;BME280;31943;51.410;7.564;2023-04-06T03:51:04;100404.16;;;1.56;58.87
46223;BME280;31943;51.410;7.564;2023-04-06T03:53:30;100405.75;;;1.54;58.78
46223;BME280;31943;51.410;7.564;2023-04-06T03:55:56;100407.47;;;1.53;58.72
46223;BME280;31943;51.410;7.564;2023-04-06T03:58:25;100404.81;;;1.52;58.60
46223;BME280;31943;51.410;7.564;2023-04-06T04:00:51;100406.50;;;1.51;58.62
46223;BME280;31943;51.410;7.564;2023-04-06T04:03:17;100413.41;;;1.52;58.57
46223;BME280;31943;51.410;7.564;2023-04-06T04:05:42;100409.88;;;1.50;58.90
46223;BME280;31943;51.410;7.564;2023-04-06T04:08:08;100408.91;;;1.48;58.69
46223;BME280;31943;51.410;7.564;2023-04-06T04:10:36;100412.31;;;1.47;58.68
46223;BME280;31943;51.410;7.564;2023-04-06T04:13:02;100411.41;;;1.47;58.69
46223;BME280;31943;51.410;7.564;2023-04-06T04:15:34;100413.03;;;1.45;58.65
46223;BME280;31943;51.410;7.564;2023-04-06T04:17:59;100417.22;;;1.43;58.74
46223;BME280;31943;51.410;7.564;2023-04-06T04:20:36;100418.81;;;1.41;58.63
46223;BME280;31943;51.410;7.564;2023-04-06T04:23:02;100410.25;;;1.40;58.73
46223;BME280;31943;51.410;7.564;2023-04-06T04:25:28;100401.66;;;1.40;58.68
46223;BME280;31943;51.410;7.564;2023-04-06T04:27:55;100408.41;;;1.37;58.62
46223;BME280;31943;51.410;7.564;2023-04-06T04:30:27;100412.59;;;1.35;58.77
46223;BME280;31943;51.410;7.564;2023-04-06T04:32:54;100415.94;;;1.34;58.86
46223;BME280;31943;51.410;7.564;2023-04-06T04:35:20;100409.06;;;1.33;58.65
46223;BME280;31943;51.410;7.564;2023-04-06T04:37:46;100409.06;;;1.33;58.74
46223;BME280;31943;51.410;7.564;2023-04-06T04:40:12;100407.19;;;1.31;58.85
46223;BME280;31943;51.410;7.564;2023-04-06T04:42:43;100408.09;;;1.31;58.99
46223;BME280;31943;51.410;7.564;2023-04-06T04:45:09;100408.81;;;1.29;58.91
46223;BME280;31943;51.410;7.564;2023-04-06T04:47:35;100413.16;;;1.30;58.63
46223;BME280;31943;51.410;7.564;2023-04-06T04:50:03;100410.59;;;1.30;58.89
46223;BME280;31943;51.410;7.564;2023-04-06T04:52:30;100406.16;;;1.27;58.82
46223;BME280;31943;51.410;7.564;2023-04-06T04:54:56;100408.72;;;1.27;58.81
46223;BME280;31943;51.410;7.564;2023-04-06T04:57:22;100412.13;;;1.26;58.86
46223;BME280;31943;51.410;7.564;2023-04-06T04:59:48;100410.28;;;1.24;58.86
46223;BME280;31943;51.410;7.564;2023-04-06T05:02:13;100408.59;;;1.24;58.95
46223;BME280;31943;51.410;7.564;2023-04-06T05:04:39;100403.38;;;1.23;58.79
46223;BME280;31943;51.410;7.564;2023-04-06T05:07:07;100411.91;;;1.22;58.84
46223;BME280;31943;51.410;7.564;2023-04-06T05:09:33;100404.13;;;1.20;58.85
46223;BME280;31943;51.410;7.564;2023-04-06T05:11:59;100405.06;;;1.22;58.69
46223;BME280;31943;51.410;7.564;2023-04-06T05:14:26;100406.81;;;1.23;58.81
46223;BME280;31943;51.410;7.564;2023-04-06T05:16:53;100403.47;;;1.24;58.94
46223;BME280;31943;51.410;7.564;2023-04-06T05:19:20;100404.25;;;1.23;58.95
46223;BME280;31943;51.410;7.564;2023-04-06T05:21:46;100405.06;;;1.22;59.15
46223;BME280;31943;51.410;7.564;2023-04-06T05:24:15;100405.00;;;1.21;59.10
46223;BME280;31943;51.410;7.564;2023-04-06T05:26:45;100401.69;;;1.23;58.96
46223;BME280;31943;51.410;7.564;2023-04-06T05:29:12;100406.03;;;1.24;59.06
46223;BME280;31943;51.410;7.564;2023-04-06T05:31:39;100395.97;;;1.29;59.13
46223;BME280;31943;51.410;7.564;2023-04-06T05:34:06;100399.50;;;1.31;59.21
46223;BME280;31943;51.410;7.564;2023-04-06T05:36:32;100404.72;;;1.32;58.98
46223;BME280;31943;51.410;7.564;2023-04-06T05:38:58;100414.25;;;1.35;58.96
46223;BME280;31943;51.410;7.564;2023-04-06T05:41:26;100405.00;;;1.38;58.98
46223;BME280;31943;51.410;7.564;2023-04-06T05:43:52;100402.69;;;1.43;58.83
46223;BME280;31943;51.410;7.564;2023-04-06T05:46:18;100401.13;;;1.47;58.91
46223;BME280;31943;51.410;7.564;2023-04-06T05:48:44;100403.94;;;1.51;58.99
46223;BME280;31943;51.410;7.564;2023-04-06T05:51:10;100405.03;;;1.56;58.92
46223;BME280;31943;51.410;7.564;2023-04-06T05:53:35;100404.31;;;1.59;58.88
46223;BME280;31943;51.410;7.564;2023-04-06T05:56:01;100396.72;;;1.62;58.98
46223;BME280;31943;51.410;7.564;2023-04-06T05:58:29;100402.25;;;1.70;58.88
46223;BME280;31943;51.410;7.564;2023-04-06T06:00:56;100394.91;;;1.77;58.91
46223;BME280;31943;51.410;7.564;2023-04-06T06:03:22;100407.25;;;1.85;58.59
46223;BME280;31943;51.410;7.564;2023-04-06T06:05:48;100401.50;;;1.90;58.75
46223;BME280;31943;51.410;7.564;2023-04-06T06:08:13;100398.41;;;1.97;58.63
46223;BME280;31943;51.410;7.564;2023-04-06T06:10:39;100396.84;;;2.01;58.53
46223;BME280;31943;51.410;7.564;2023-04-06T06:13:05;100396.34;;;2.08;58.58
46223;BME280;31943;51.410;7.564;2023-04-06T06:15:32;100394.03;;;2.14;58.48
46223;BME280;31943;51.410;7.564;2023-04-06T06:17:57;100397.66;;;2.18;58.52
46223;BME280;31943;51.410;7.564;2023-04-06T06:20:23;100399.69;;;2.25;58.35
46223;BME280;31943;51.410;7.564;2023-04-06T06:22:48;100396.66;;;2.34;58.13
46223;BME280;31943;51.410;7.564;2023-04-06T06:25:14;100397.19;;;2.46;58.05
46223;BME280;31943;51.410;7.564;2023-04-06T06:27:41;100394.16;;;2.55;57.72
46223;BME280;31943;51.410;7.564;2023-04-06T06:30:08;100387.72;;;2.65;57.37
46223;BME280;31943;51.410;7.564;2023-04-06T06:32:35;100390.56;;;2.71;56.99
46223;BME280;31943;51.410;7.564;2023-04-06T06:35:01;100397.72;;;2.78;57.29
46223;BME280;31943;51.410;7.564;2023-04-06T06:37:27;100395.50;;;2.86;57.18
46223;BME280;31943;51.410;7.564;2023-04-06T06:39:53;100397.53;;;2.93;56.88
46223;BME280;31943;51.410;7.564;2023-04-06T06:42:18;100397.03;;;3.02;56.87
46223;BME280;31943;51.410;7.564;2023-04-06T06:44:44;100391.19;;;3.06;56.81
46223;BME280;31943;51.410;7.564;2023-04-06T06:47:11;100396.56;;;3.10;56.70
46223;BME280;31943;51.410;7.564;2023-04-06T06:49:39;100401.09;;;3.16;56.70
46223;BME280;31943;51.410;7.564;2023-04-06T06:52:04;100389.31;;;3.23;56.58
46223;BME280;31943;51.410;7.564;2023-04-06T06:54:30;100386.88;;;3.26;56.56
46223;BME280;31943;51.410;7.564;2023-04-06T06:56:56;100383.78;;;3.34;56.29
46223;BME280;31943;51.410;7.564;2023-04-06T06:59:22;100379.81;;;3.43;56.32
46223;BME280;31943;51.410;7.564;2023-04-06T07:01:49;100378.50;;;3.52;56.10
46223;BME280;31943;51.410;7.564;2023-04-06T07:04:18;100378.72;;;3.57;56.09
46223;BME280;31943;51.410;7.564;2023-04-06T07:06:45;100374.81;;;3.68;55.71
46223;BME280;31943;51.410;7.564;2023-04-06T07:09:11;100369.97;;;3.76;55.28
46223;BME280;31943;51.410;7.564;2023-04-06T07:11:37;100376.34;;;3.84;54.71
46223;BME280;31943;51.410;7.564;2023-04-06T07:14:02;100377.59;;;3.94;54.55
46223;BME280;31943;51.410;7.564;2023-04-06T07:16:29;100376.19;;;4.04;54.28
46223;BME280;31943;51.410;7.564;2023-04-06T07:18:54;100377.28;;;4.09;54.26
46223;BME280;31943;51.410;7.564;2023-04-06T07:21:20;100368.94;;;4.16;54.07
46223;BME280;31943;51.410;7.564;2023-04-06T07:23:47;100370.09;;;4.24;53.55
46223;BME280;31943;51.410;7.564;2023-04-06T07:26:13;100372.97;;;4.32;53.22
46223;BME280;31943;51.410;7.564;2023-04-06T07:28:39;100365.66;;;4.44;53.04
46223;BME280;31943;51.410;7.564;2023-04-06T07:31:05;100367.88;;;4.58;53.26
46223;BME280;31943;51.410;7.564;2023-04-06T07:33:31;100364.78;;;4.68;53.07
46223;BME280;31943;51.410;7.564;2023-04-06T07:35:56;100366.13;;;4.81;52.87
46223;BME280;31943;51.410;7.564;2023-04-06T07:38:22;100369.13;;;4.93;52.64
46223;BME280;31943;51.410;7.564;2023-04-06T07:40:49;100359.97;;;5.03;52.09
46223;BME280;31943;51.410;7.564;2023-04-06T07:43:15;100355.06;;;5.10;52.02
46223;BME280;31943;51.410;7.564;2023-04-06T07:45:41;100356.34;;;5.23;51.78
46223;BME280;31943;51.410;7.564;2023-04-06T07:48:07;100355.16;;;5.39;51.55
46223;BME280;31943;51.410;7.564;2023-04-06T07:50:33;100346.91;;;5.51;51.55
46223;BME280;31943;51.410;7.564;2023-04-06T07:52:59;100353.41;;;5.65;51.74
46223;BME280;31943;51.410;7.564;2023-04-06T07:55:25;100345.25;;;5.80;51.47
46223;BME280;31943;51.410;7.564;2023-04-06T07:57:52;100344.97;;;6.00;51.51
46223;BME280;31943;51.410;7.564;2023-04-06T08:00:18;100337.13;;;6.25;51.28
46223;BME280;31943;51.410;7.564;2023-04-06T08:02:44;100346.38;;;6.47;51.04
46223;BME280;31943;51.410;7.564;2023-04-06T08:05:10;100332.19;;;6.66;51.05
46223;BME280;31943;51.410;7.564;2023-04-06T08:07:41;100326.63;;;6.84;50.22
46223;BME280;31943;51.410;7.564;2023-04-06T08:10:07;100333.13;;;7.02;48.81
46223;BME280;31943;51.410;7.564;2023-04-06T08:12:32;100339.41;;;7.10;47.60
46223;BME280;31943;51.410;7.564;2023-04-06T08:15:00;100330.31;;;7.27;46.76
46223;BME280;31943;51.410;7.564;2023-04-06T08:17:26;100333.63;;;7.57;46.75
46223;BME280;31943;51.410;7.564;2023-04-06T08:19:55;100335.94;;;7.82;45.70
46223;BME280;31943;51.410;7.564;2023-04-06T08:22:20;100335.63;;;8.09;45.33
46223;BME280;31943;51.410;7.564;2023-04-06T08:24:46;100340.38;;;8.29;45.19
46223;BME280;31943;51.410;7.564;2023-04-06T08:27:12;100342.53;;;8.47;44.27
46223;BME280;31943;51.410;7.564;2023-04-06T08:29:37;100343.56;;;8.55;43.67
46223;BME280;31943;51.410;7.564;2023-04-06T08:32:05;100340.31;;;8.67;43.75
46223;BME280;31943;51.410;7.564;2023-04-06T08:34:31;100341.41;;;8.78;43.35
46223;BME280;31943;51.410;7.564;2023-04-06T08:36:57;100340.69;;;8.87;42.99
46223;BME280;31943;51.410;7.564;2023-04-06T08:39:23;100334.88;;;9.00;42.58
46223;BME280;31943;51.410;7.564;2023-04-06T08:41:49;100338.53;;;9.13;42.22
46223;BME280;31943;51.410;7.564;2023-04-06T08:44:16;100327.56;;;9.29;41.51
46223;BME280;31943;51.410;7.564;2023-04-06T08:46:42;100320.75;;;9.41;41.66
46223;BME280;31943;51.410;7.564;2023-04-06T08:49:10;100317.47;;;9.51;41.34
46223;BME280;31943;51.410;7.564;2023-04-06T08:51:36;100321.00;;;9.56;40.98
46223;BME280;31943;51.410;7.564;2023-04-06T08:54:02;100315.13;;;9.69;40.86
46223;BME280;31943;51.410;7.564;2023-04-06T08:56:28;100318.84;;;9.87;40.98
46223;BME280;31943;51.410;7.564;2023-04-06T08:58:55;100313.84;;;10.02;40.83
46223;BME280;31943;51.410;7.564;2023-04-06T09:01:24;100313.13;;;10.14;40.73
46223;BME280;31943;51.410;7.564;2023-04-06T09:03:51;100319.34;;;10.24;39.96
46223;BME280;31943;51.410;7.564;2023-04-06T09:06:22;100316.75;;;10.24;39.76
46223;BME280;31943;51.410;7.564;2023-04-06T09:08:48;100312.41;;;10.26;38.98
46223;BME280;31943;51.410;7.564;2023-04-06T09:11:15;100315.25;;;10.44;39.34
46223;BME280;31943;51.410;7.564;2023-04-06T09:13:45;100309.31;;;10.56;38.87
46223;BME280;31943;51.410;7.564;2023-04-06T09:16:11;100307.75;;;10.71;38.75
46223;BME280;31943;51.410;7.564;2023-04-06T09:18:37;100302.66;;;10.87;38.55
46223;BME280;31943;51.410;7.564;2023-04-06T09:21:04;100300.25;;;11.06;38.32
46223;BME280;31943;51.410;7.564;2023-04-06T09:23:34;100304.63;;;11.10;36.28
46223;BME280;31943;51.410;7.564;2023-04-06T09:26:08;100295.19;;;11.26;37.76
46223;BME280;31943;51.410;7.564;2023-04-06T09:28:48;100301.34;;;11.34;37.78
46223;BME280;31943;51.410;7.564;2023-04-06T09:31:15;100297.94;;;11.46;37.36
46223;BME280;31943;51.410;7.564;2023-04-06T09:33:44;100292.00;;;11.72;36.57
46223;BME280;31943;51.410;7.564;2023-04-06T09:36:10;100288.78;;;12.10;36.01
46223;BME280;31943;51.410;7.564;2023-04-06T09:38:52;100296.63;;;12.13;36.34
46223;BME280;31943;51.410;7.564;2023-04-06T09:41:21;100294.84;;;12.07;36.28
46223;BME280;31943;51.410;7.564;2023-04-06T09:43:47;100282.59;;;11.95;35.85
46223;BME280;31943;51.410;7.564;2023-04-06T09:46:14;100289.59;;;12.01;35.92
46223;BME280;31943;51.410;7.564;2023-04-06T09:48:41;100288.72;;;12.03;36.02
46223;BME280;31943;51.410;7.564;2023-04-06T09:51:08;100288.75;;;12.06;35.80
46223;BME280;31943;51.410;7.564;2023-04-06T09:53:39;100285.28;;;12.12;34.90
46223;BME280;31943;51.410;7.564;2023-04-06T09:56:12;100285.31;;;12.18;34.96
46223;BME280;31943;51.410;7.564;2023-04-06T09:58:43;100284.44;;;12.21;34.72
46223;BME280;31943;51.410;7.564;2023-04-06T10:01:15;100280.88;;;12.05;33.90
46223;BME280;31943;51.410;7.564;2023-04-06T10:03:49;100283.47;;;11.97;34.00
46223;BME280;31943;51.410;7.564;2023-04-06T10:06:21;100289.59;;;12.01;33.70
46223;BME280;31943;51.410;7.564;2023-04-06T10:08:50;100282.72;;;12.20;34.24
46223;BME280;31943;51.410;7.564;2023-04-06T10:11:19;100279.22;;;12.19;33.84
46223;BME280;31943;51.410;7.564;2023-04-06T10:13:47;100279.22;;;12.18;34.10
46223;BME280;31943;51.410;7.564;2023-04-06T10:16:14;100282.72;;;12.21;35.05
46223;BME280;31943;51.410;7.564;2023-04-06T10:18:44;100275.78;;;12.31;35.23
46223;BME280;31943;51.410;7.564;2023-04-06T10:21:12;100281.91;;;12.50;34.75
46223;BME280;31943;51.410;7.564;2023-04-06T10:23:46;100288.06;;;12.66;35.12
46223;BME280;31943;51.410;7.564;2023-04-06T10:26:17;100283.69;;;12.57;34.74
46223;BME280;31943;51.410;7.564;2023-04-06T10:28:45;100286.31;;;12.53;34.99
46223;BME280;31943;51.410;7.564;2023-04-06T10:31:12;100282.81;;;12.57;34.59
46223;BME280;31943;51.410;7.564;2023-04-06T10:33:38;100284.59;;;12.61;34.98
46223;BME280;31943;51.410;7.564;2023-04-06T10:36:10;100285.44;;;12.57;35.31
46223;BME280;31943;51.410;7.564;2023-04-06T10:38:37;100281.06;;;12.57;35.23
46223;BME280;31943;51.410;7.564;2023-04-06T10:41:04;100286.34;;;12.73;35.26
46223;BME280;31943;51.410;7.564;2023-04-06T10:43:34;100279.38;;;12.79;34.37
46223;BME280;31943;51.410;7.564;2023-04-06T10:46:00;100278.50;;;12.85;34.62
46223;BME280;31943;51.410;7.564;2023-04-06T10:48:37;100278.53;;;12.88;34.51
46223;BME280;31943;51.410;7.564;2023-04-06T10:51:08;100271.50;;;12.79;34.71
46223;BME280;31943;51.410;7.564;2023-04-06T10:53:34;100270.63;;;12.83;34.34
46223;BME280;31943;51.410;7.564;2023-04-06T10:56:00;100282.00;;;12.96;33.84
46223;BME280;31943;51.410;7.564;2023-04-06T10:58:27;100275.03;;;13.06;34.11
46223;BME280;31943;51.410;7.564;2023-04-06T11:00:59;100269.78;;;13.12;33.83
46223;BME280;31943;51.410;7.564;2023-04-06T11:03:41;100275.91;;;13.17;34.17
46223;BME280;31943;51.410;7.564;2023-04-06T11:06:07;100265.41;;;13.19;33.98
46223;BME280;31943;51.410;7.564;2023-04-06T11:08:33;100261.91;;;13.23;33.64
46223;BME280;31943;51.410;7.564;2023-04-06T11:11:06;100259.28;;;13.23;33.24
46223;BME280;31943;51.410;7.564;2023-04-06T11:13:40;100253.22;;;13.41;32.55
46223;BME280;31943;51.410;7.564;2023-04-06T11:16:12;100259.31;;;13.49;32.10
46223;BME280;31943;51.410;7.564;2023-04-06T11:18:37;100254.03;;;13.60;32.77
46223;BME280;31943;51.410;7.564;2023-04-06T11:21:04;100257.50;;;13.77;32.87
46223;BME280;31943;51.410;7.564;2023-04-06T11:23:32;100257.44;;;13.96;32.83
46223;BME280;31943;51.410;7.564;2023-04-06T11:25:58;100260.94;;;13.95;31.43
46223;BME280;31943;51.410;7.564;2023-04-06T11:28:26;100253.13;;;13.72;31.06
46223;BME280;31943;51.410;7.564;2023-04-06T11:30:52;100253.19;;;13.53;31.19
46223;BME280;31943;51.410;7.564;2023-04-06T11:33:22;100240.97;;;13.51;32.23
46223;BME280;31943;51.410;7.564;2023-04-06T11:35:48;100252.28;;;13.56;32.14
46223;BME280;31943;51.410;7.564;2023-04-06T11:38:14;100250.53;;;13.67;31.89
46223;BME280;31943;51.410;7.564;2023-04-06T11:40:40;100243.53;;;13.72;32.32
46223;BME280;31943;51.410;7.564;2023-04-06T11:43:06;100248.78;;;13.64;32.22
46223;BME280;31943;51.410;7.564;2023-04-06T11:45:39;100248.78;;;13.72;32.55
46223;BME280;31943;51.410;7.564;2023-04-06T11:48:06;100242.63;;;13.73;32.52
46223;BME280;31943;51.410;7.564;2023-04-06T11:50:46;100239.16;;;13.71;32.96
46223;BME280;31943;51.410;7.564;2023-04-06T11:53:12;100249.66;;;13.74;33.49
46223;BME280;31943;51.410;7.564;2023-04-06T11:55:38;100236.47;;;13.83;33.30
46223;BME280;31943;51.410;7.564;2023-04-06T11:58:04;100232.06;;;13.95;33.59
46223;BME280;31943;51.410;7.564;2023-04-06T12:00:30;100228.56;;;14.00;33.47
46223;BME280;31943;51.410;7.564;2023-04-06T12:02:55;100232.03;;;14.06;33.82
46223;BME280;31943;51.410;7.564;2023-04-06T12:05:21;100231.16;;;14.05;33.41
46223;BME280;31943;51.410;7.564;2023-04-06T12:07:48;100233.78;;;14.07;34.02
46223;BME280;31943;51.410;7.564;2023-04-06T12:10:14;100225.88;;;14.13;34.22
46223;BME280;31943;51.410;7.564;2023-04-06T12:12:40;100230.22;;;14.20;34.43
46223;BME280;31943;51.410;7.564;2023-04-06T12:15:08;100225.88;;;14.16;33.50
46223;BME280;31943;51.410;7.564;2023-04-06T12:17:34;100223.22;;;14.20;33.53
46223;BME280;31943;51.410;7.564;2023-04-06T12:20:00;100222.34;;;14.23;34.45
46223;BME280;31943;51.410;7.564;2023-04-06T12:22:25;100224.03;;;14.29;34.41
46223;BME280;31943;51.410;7.564;2023-04-06T12:24:53;100222.22;;;14.41;33.91
46223;BME280;31943;51.410;7.564;2023-04-06T12:27:18;100209.94;;;14.43;34.01
46223;BME280;31943;51.410;7.564;2023-04-06T12:29:44;100210.75;;;14.58;33.85
46223;BME280;31943;51.410;7.564;2023-04-06T12:32:11;100214.25;;;14.60;33.46
46223;BME280;31943;51.410;7.564;2023-04-06T12:34:38;100215.22;;;14.43;33.09
46223;BME280;31943;51.410;7.564;2023-04-06T12:37:06;100217.78;;;14.51;33.25
46223;BME280;31943;51.410;7.564;2023-04-06T12:39:32;100216.06;;;14.49;33.60
46223;BME280;31943;51.410;7.564;2023-04-06T12:42:01;100214.31;;;14.48;33.44
46223;BME280;31943;51.410;7.564;2023-04-06T12:44:28;100224.84;;;14.40;34.42
46223;BME280;31943;51.410;7.564;2023-04-06T12:46:53;100220.50;;;14.37;34.31
46223;BME280;31943;51.410;7.564;2023-04-06T12:49:20;100204.72;;;14.42;33.31
46223;BME280;31943;51.410;7.564;2023-04-06T12:51:47;100209.09;;;14.40;33.42
46223;BME280;31943;51.410;7.564;2023-04-06T12:54:14;100206.41;;;14.51;33.86
46223;BME280;31943;51.410;7.564;2023-04-06T12:56:40;100210.78;;;14.56;33.82